Anderson, OR

9:27 PM PDT on October 19, 2014 (GMT -0700)
Hogan and Roberts | Change Station
CLOSE
Current Station
Personal Weather Station
Location: Gresham, OR
Elevation: 384 ft
Nearby Weather Stations

Elev 384 ft 45.49 °N, 122.42 °W | Updated 14 seconds ago

Clear
Clear
57.9 °F
Feels Like 57.9 °F
N
0.0
Wind Variable Wind from WSW
Gusts 0.0 mph

Today
High -- | Low -- °F
--% Chance of Precip.
Yesterday
High -- | Low -- °F
Precip. -- in
7:31 AM 6:17 PM
Waning Crescent, 13% visible
Pressure 29.70 in
Visibility 10.0 miles
Clouds Few 12000 ft
Dew Point 46 °F
Humidity 64%
Rainfall 0.00 in
Snow Depth 0 in
UV 0 out of 12
Pollen 1.90 out of 12
Ozone Good
PM2.5 Moderate
Flu Activity Sporadic
METAR KTTD 200253Z 12003KT 10SM FEW120 17/13 A2969 RMK AO2 SLP055 T01720133 56007

More Conditions Fewer Conditions

Pressure 29.70 in
Visibility 10.0 miles
Clouds Few 12000 ft
Dew Point 46 °F
Humidity 64%
Rainfall 0.00 in
Snow Depth 0 in
UV 0 out of 12
Pollen 1.90 out of 12
Ozone Good
PM2.5 Moderate
Flu Activity Sporadic
METAR KTTD 200253Z 12003KT 10SM FEW120 17/13 A2969 RMK AO2 SLP055 T01720133 56007

More Conditions Fewer Conditions

10-Day Weather Forecast

Almanac

Astronomy

Oct. 19, 2014 Rise Set
Actual Time 7:31 AM PDT 6:17 PM PDT
Civil Twilight 7:01 AM PDT 6:47 PM PDT
Nautical Twilight 6:26 AM PDT 7:21 PM PDT
Astronomical Twilight 5:52 AM PDT 7:55 PM PDT
Moon 3:18 AM PDT (10/19) 4:21 PM PDT (10/19)
Length of Visible Light 11h 45m
Length of Day
10h 45m
Waning Crescent, 13% of the Moon is Illuminated
Oct 20
Waning Crescent
Oct 23
New
Oct 30
First Quarter
Nov 6
Full
Nov 14
Last Quarter

Yesterday's Extremes

State Highs State Lows

Community

WunderPhotos

Upload Photos

1,763,294 photos uploaded!

Nearby

Air Quality

  Air Quality AQ Index Pollutant
Yesterday Good
PM2.5
Yesterday Good
OZONE
Current Moderate
PM2.5
Current Good
OZONE
Sunday Good
PM2.5
Monday Good
PM2.5

Snow Depth

Station Depth Elevation
North Fork 0 in 3120 ft
Red Hill 0 in 4400 ft
Greenpoint 0 in 3200 ft
Mud Ridge 0 in 3800 ft
Peavine Ridge 0 in 3500 ft

Earthquake Activity

City Distance Mag. Time & Date
No recent earthquake activity has been reported nearby.
Minimum magnitude displayed is 2.5.

Coastal Water Temperatures

Place Temperature
No Stations Reporting

Nearby Weather Stations